createdAt,value
2023-04-26T00:00:30.306Z,4.13
2023-04-26T00:02:59.922Z,2.78
2023-04-26T00:05:26.995Z,4.15
2023-04-26T00:07:54.224Z,3.72
2023-04-26T00:10:21.108Z,3.42
2023-04-26T00:12:47.735Z,3.85
2023-04-26T00:15:14.141Z,3.60
2023-04-26T00:17:41.377Z,3.03
2023-04-26T00:20:10.440Z,3.67
2023-04-26T00:22:37.438Z,2.90
2023-04-26T00:25:04.179Z,2.95
2023-04-26T00:27:30.549Z,2.42
2023-04-26T00:29:56.997Z,3.85
2023-04-26T00:32:23.361Z,2.90
2023-04-26T00:34:49.714Z,3.33
2023-04-26T00:37:16.588Z,3.70
2023-04-26T00:39:42.998Z,3.38
2023-04-26T00:42:09.387Z,4.30
2023-04-26T00:44:36.285Z,3.33
2023-04-26T00:47:03.398Z,2.90
2023-04-26T00:49:30.049Z,3.60
2023-04-26T00:51:57.602Z,3.42
2023-04-26T00:54:25.765Z,3.00
2023-04-26T00:56:53.367Z,2.97
2023-04-26T00:59:21.316Z,3.33
2023-04-26T01:01:49.075Z,3.30
2023-04-26T01:04:15.979Z,3.15
2023-04-26T01:06:42.653Z,2.97
2023-04-26T01:09:10.828Z,3.20
2023-04-26T01:11:38.448Z,3.63
2023-04-26T01:14:06.310Z,3.20
2023-04-26T01:16:33.160Z,3.30
2023-04-26T01:19:07.657Z,3.60
2023-04-26T01:21:34.473Z,3.50
2023-04-26T01:24:01.416Z,3.92
2023-04-26T01:26:27.795Z,3.75
2023-04-26T01:28:54.314Z,3.63
2023-04-26T01:31:21.461Z,3.92
2023-04-26T01:33:47.819Z,3.80
2023-04-26T01:36:14.138Z,3.13
2023-04-26T01:38:40.502Z,3.17
2023-04-26T01:41:07.187Z,3.60
2023-04-26T01:43:33.584Z,3.75
2023-04-26T01:45:59.940Z,3.80
2023-04-26T01:48:26.350Z,3.65
2023-04-26T01:50:52.696Z,3.97
2023-04-26T01:53:19.299Z,4.10
2023-04-26T01:55:45.710Z,5.63
2023-04-26T01:58:12.295Z,5.57
2023-04-26T02:00:38.648Z,5.28
2023-04-26T02:03:05.038Z,4.20
2023-04-26T02:05:31.648Z,4.70
2023-04-26T02:07:58.232Z,4.35
2023-04-26T02:10:24.909Z,4.32
2023-04-26T02:12:51.308Z,4.40
2023-04-26T02:15:17.954Z,4.75
2023-04-26T02:17:44.532Z,4.05
2023-04-26T02:20:11.537Z,4.38
2023-04-26T02:22:38.189Z,4.15
2023-04-26T02:25:05.490Z,4.72
2023-04-26T02:27:32.904Z,4.43
2023-04-26T02:29:59.978Z,5.32
2023-04-26T02:32:26.392Z,5.25
2023-04-26T02:34:52.811Z,4.50
2023-04-26T02:37:19.422Z,4.22
2023-04-26T02:39:50.876Z,4.47
2023-04-26T02:42:17.477Z,4.80
2023-04-26T02:44:43.845Z,4.80
2023-04-26T02:47:11.145Z,5.07
2023-04-26T02:49:37.555Z,4.90
2023-04-26T02:52:04.137Z,4.93
2023-04-26T02:54:30.689Z,4.90
2023-04-26T02:56:58.354Z,4.95
2023-04-26T02:59:24.935Z,5.45
2023-04-26T03:01:51.349Z,5.30
2023-04-26T03:04:18.219Z,5.93
2023-04-26T03:06:44.937Z,4.57
2023-04-26T03:09:11.470Z,4.85
2023-04-26T03:11:37.776Z,5.53
2023-04-26T03:14:04.270Z,5.68
2023-04-26T03:16:30.696Z,5.10
2023-04-26T03:18:57.033Z,5.28
2023-04-26T03:21:23.651Z,5.20
2023-04-26T03:23:50.003Z,5.15
2023-04-26T03:26:16.643Z,5.32
2023-04-26T03:28:43.008Z,6.18
2023-04-26T03:31:09.383Z,6.30
2023-04-26T03:33:36.019Z,6.18
2023-04-26T03:36:02.778Z,6.03
2023-04-26T03:38:29.334Z,6.18
2023-04-26T03:40:55.940Z,6.25
2023-04-26T03:43:22.297Z,6.13
2023-04-26T03:45:50.231Z,5.32
2023-04-26T03:48:17.215Z,5.53
2023-04-26T03:50:44.966Z,5.95
2023-04-26T03:53:12.042Z,5.93
2023-04-26T03:55:38.540Z,5.75
2023-04-26T03:58:07.782Z,6.32
2023-04-26T04:00:37.529Z,7.40
2023-04-26T04:03:04.576Z,6.97
2023-04-26T04:05:31.017Z,6.32
2023-04-26T04:07:57.536Z,7.05
2023-04-26T04:10:23.990Z,6.72
2023-04-26T04:12:54.053Z,6.97
2023-04-26T04:15:21.310Z,6.40
2023-04-26T04:17:47.911Z,6.93
2023-04-26T04:20:14.356Z,6.72
2023-04-26T04:22:40.860Z,6.72
2023-04-26T04:25:09.121Z,7.28
2023-04-26T04:27:36.852Z,6.53
2023-04-26T04:30:07.182Z,6.75
2023-04-26T04:32:33.870Z,6.65
2023-04-26T04:35:00.611Z,7.43
2023-04-26T04:37:27.566Z,7.75
2023-04-26T04:39:56.647Z,7.65
2023-04-26T04:42:23.580Z,7.97
2023-04-26T04:44:51.335Z,7.30
2023-04-26T04:47:17.994Z,8.32
2023-04-26T04:49:44.918Z,8.00
2023-04-26T04:52:11.476Z,8.40
2023-04-26T04:54:37.876Z,8.13
2023-04-26T04:57:04.277Z,8.25
2023-04-26T04:59:31.491Z,7.90
2023-04-26T05:01:58.461Z,7.80
2023-04-26T05:04:25.378Z,9.05
2023-04-26T05:06:52.359Z,8.75
2023-04-26T05:09:18.950Z,9.65
2023-04-26T05:11:46.005Z,9.00
2023-04-26T05:14:12.654Z,8.95
2023-04-26T05:16:39.373Z,9.38
2023-04-26T05:19:08.038Z,9.20
2023-04-26T05:21:35.912Z,9.07
2023-04-26T05:24:02.255Z,9.10
2023-04-26T05:26:28.928Z,8.75
2023-04-26T05:28:55.439Z,10.57
2023-04-26T05:31:21.890Z,9.30
2023-04-26T05:33:48.503Z,9.88
2023-04-26T05:36:14.947Z,9.40
2023-04-26T05:38:41.457Z,8.88
2023-04-26T05:41:07.793Z,9.48
2023-04-26T05:43:34.604Z,9.32
2023-04-26T05:46:02.247Z,9.77
2023-04-26T05:48:30.024Z,10.03
2023-04-26T05:50:56.469Z,11.52
2023-04-26T05:53:22.893Z,10.13
2023-04-26T05:55:49.321Z,10.48
2023-04-26T05:58:15.813Z,10.55
2023-04-26T06:00:43.789Z,11.60
2023-04-26T06:03:10.941Z,11.68
2023-04-26T06:05:41.233Z,10.68
2023-04-26T06:08:08.017Z,10.70
2023-04-26T06:10:35.888Z,12.18
2023-04-26T06:13:02.501Z,11.23
2023-04-26T06:15:28.937Z,11.13
2023-04-26T06:17:55.353Z,11.38
2023-04-26T06:20:22.104Z,11.20
2023-04-26T06:22:48.782Z,10.40
2023-04-26T06:25:15.437Z,10.05
2023-04-26T06:27:42.058Z,10.35
2023-04-26T06:30:09.036Z,10.27
2023-04-26T06:32:36.324Z,10.80
2023-04-26T06:35:03.049Z,11.45
2023-04-26T06:37:29.412Z,11.15
2023-04-26T06:39:55.821Z,11.38
2023-04-26T06:42:22.378Z,10.45
2023-04-26T06:44:48.782Z,9.90
2023-04-26T06:47:15.167Z,9.35
2023-04-26T06:49:42.400Z,9.18
2023-04-26T06:52:09.670Z,9.18
2023-04-26T06:54:40.247Z,9.95
2023-04-26T06:57:16.668Z,9.85
2023-04-26T06:59:43.013Z,9.43
2023-04-26T07:02:11.011Z,8.30
2023-04-26T07:04:37.709Z,7.88
2023-04-26T07:07:04.540Z,8.32
2023-04-26T07:09:31.942Z,8.05
2023-04-26T07:11:58.291Z,8.40
2023-04-26T07:14:24.872Z,7.93
2023-04-26T07:16:51.361Z,10.18
2023-04-26T07:19:18.021Z,15.25
2023-04-26T07:21:44.513Z,8.90
2023-04-26T07:24:11.115Z,7.70
2023-04-26T07:26:37.970Z,6.53
2023-04-26T07:29:04.428Z,7.80
2023-04-26T07:31:32.044Z,7.47
2023-04-26T07:34:00.427Z,6.50
2023-04-26T07:36:27.769Z,5.15
2023-04-26T07:38:54.566Z,4.82
2023-04-26T07:41:21.450Z,5.45
2023-04-26T07:43:47.845Z,6.82
2023-04-26T07:46:14.537Z,5.35
2023-04-26T07:48:40.928Z,4.93
2023-04-26T07:51:12.235Z,5.40
2023-04-26T07:53:39.712Z,5.00
2023-04-26T07:56:10.507Z,4.68
2023-04-26T07:58:38.945Z,4.85
2023-04-26T08:01:05.863Z,4.60
2023-04-26T08:03:32.765Z,4.88
2023-04-26T08:05:59.836Z,5.07
2023-04-26T08:08:26.984Z,3.97
2023-04-26T08:10:53.606Z,4.72
2023-04-26T08:13:20.228Z,4.65
2023-04-26T08:15:47.196Z,5.47
2023-04-26T08:18:13.633Z,6.25
2023-04-26T08:20:40.117Z,6.15
2023-04-26T08:23:10.019Z,6.13
2023-04-26T08:25:36.428Z,5.30
2023-04-26T08:28:02.942Z,3.88
2023-04-26T08:30:29.517Z,4.03
2023-04-26T08:32:56.625Z,4.88
2023-04-26T08:35:23.325Z,5.47
2023-04-26T08:37:49.957Z,4.45
2023-04-26T08:40:22.882Z,4.20
2023-04-26T08:42:49.283Z,5.00
2023-04-26T08:45:16.587Z,3.38
2023-04-26T08:48:06.366Z,3.97
2023-04-26T08:50:34.684Z,4.07
2023-04-26T08:53:02.468Z,4.38
2023-04-26T08:55:29.659Z,4.00
2023-04-26T08:57:56.604Z,4.60
2023-04-26T09:00:23.532Z,4.50
2023-04-26T09:02:52.809Z,4.82
2023-04-26T09:05:24.939Z,4.60
2023-04-26T09:07:56.266Z,3.25
2023-04-26T09:10:23.316Z,3.63
2023-04-26T09:12:53.351Z,3.33
2023-04-26T09:15:23.001Z,4.13
2023-04-26T09:17:52.758Z,3.20
2023-04-26T09:20:29.102Z,3.80
2023-04-26T09:23:06.777Z,3.45
2023-04-26T09:25:33.503Z,3.67
2023-04-26T09:28:01.084Z,3.15
2023-04-26T09:30:28.584Z,2.93
2023-04-26T09:32:55.124Z,3.40
2023-04-26T09:35:22.907Z,3.10
2023-04-26T09:38:02.961Z,3.90
2023-04-26T09:40:36.984Z,3.00
2023-04-26T09:43:06.135Z,2.83
2023-04-26T09:45:34.355Z,2.25
2023-04-26T09:48:21.891Z,3.25
2023-04-26T09:50:50.555Z,2.60
2023-04-26T09:53:31.279Z,2.60
2023-04-26T09:56:10.084Z,2.35
2023-04-26T09:58:40.639Z,2.70
2023-04-26T10:01:08.722Z,2.58
2023-04-26T10:03:36.029Z,2.40
2023-04-26T10:06:04.282Z,2.63
2023-04-26T10:08:34.679Z,2.45
2023-04-26T10:11:04.094Z,2.72
2023-04-26T10:13:34.846Z,2.95
2023-04-26T10:16:08.181Z,2.70
2023-04-26T10:18:34.607Z,3.25
2023-04-26T10:21:17.301Z,3.28
2023-04-26T10:23:44.769Z,3.05
2023-04-26T10:26:53.260Z,3.13
2023-04-26T10:30:07.419Z,3.17
2023-04-26T10:32:56.537Z,3.33
2023-04-26T10:35:30.985Z,2.85
2023-04-26T10:38:18.405Z,2.50
2023-04-26T10:40:45.768Z,2.60
2023-04-26T10:43:15.122Z,2.80
2023-04-26T10:45:43.219Z,3.15
2023-04-26T10:48:18.925Z,3.00
2023-04-26T10:51:10.424Z,3.92
2023-04-26T10:53:46.119Z,3.42
2023-04-26T10:56:33.528Z,3.63
2023-04-26T10:59:33.367Z,3.50
2023-04-26T11:02:01.279Z,3.30
2023-04-26T11:04:50.906Z,2.88
2023-04-26T11:07:37.285Z,3.58
2023-04-26T11:10:04.041Z,3.20
2023-04-26T11:12:30.503Z,3.55
2023-04-26T11:14:59.913Z,2.85
2023-04-26T11:17:26.566Z,2.45
2023-04-26T11:19:53.203Z,2.38
2023-04-26T11:22:22.147Z,2.70
2023-04-26T11:24:49.793Z,3.13
2023-04-26T11:27:16.708Z,2.67
2023-04-26T11:29:44.449Z,2.85
2023-04-26T11:32:13.059Z,2.97
2023-04-26T11:37:11.691Z,2.53
2023-04-26T11:39:38.106Z,3.50
2023-04-26T11:42:09.043Z,3.30
2023-04-26T11:44:37.757Z,3.17
2023-04-26T11:47:06.645Z,3.22
2023-04-26T11:49:35.560Z,3.03
2023-04-26T11:52:04.944Z,3.17
2023-04-26T11:54:33.081Z,3.42
2023-04-26T11:57:01.050Z,2.88
2023-04-26T11:59:29.181Z,3.17
2023-04-26T12:01:57.284Z,2.38
2023-04-26T12:04:30.378Z,2.47
2023-04-26T12:06:58.516Z,2.67
2023-04-26T12:09:28.379Z,3.13
2023-04-26T12:12:08.175Z,2.63
2023-04-26T12:14:36.575Z,2.60
2023-04-26T12:17:04.350Z,2.97
2023-04-26T12:19:34.602Z,2.92
2023-04-26T12:22:01.134Z,2.72
2023-04-26T12:24:30.669Z,2.70
2023-04-26T12:26:57.132Z,2.55
2023-04-26T12:29:23.508Z,2.58
2023-04-26T12:31:50.114Z,2.25
2023-04-26T12:34:16.730Z,2.50
2023-04-26T12:36:46.400Z,2.88
2023-04-26T12:39:14.348Z,2.83
2023-04-26T12:41:44.243Z,2.17
2023-04-26T12:44:11.947Z,2.60
2023-04-26T12:46:38.658Z,2.60
2023-04-26T12:49:05.322Z,2.47
2023-04-26T12:51:34.579Z,2.65
2023-04-26T12:54:01.236Z,2.40
2023-04-26T12:56:29.530Z,2.83
2023-04-26T12:58:56.124Z,2.53
2023-04-26T13:01:22.585Z,3.03
2023-04-26T13:03:49.156Z,2.53
2023-04-26T13:06:16.053Z,2.95
2023-04-26T13:08:42.457Z,3.00
2023-04-26T13:11:08.879Z,2.72
2023-04-26T13:13:42.943Z,2.53
2023-04-26T13:16:09.978Z,3.15
2023-04-26T13:18:36.371Z,2.90
2023-04-26T13:21:04.191Z,2.60
2023-04-26T13:23:30.829Z,3.10
2023-04-26T13:25:57.123Z,2.95
2023-04-26T13:28:23.466Z,3.30
2023-04-26T13:33:16.485Z,4.32
2023-04-26T13:35:42.895Z,5.15
2023-04-26T13:38:09.314Z,4.20
2023-04-26T13:40:37.534Z,7.68
2023-04-26T13:43:03.952Z,7.32
2023-04-26T13:45:30.657Z,9.18
2023-04-26T13:47:57.032Z,6.22
2023-04-26T13:50:23.457Z,5.57
2023-04-26T13:52:50.911Z,4.38
2023-04-26T13:55:17.426Z,7.20
2023-04-26T13:57:43.741Z,4.78
2023-04-26T14:00:11.864Z,5.07
2023-04-26T14:02:38.769Z,3.83
2023-04-26T14:05:05.672Z,2.80
2023-04-26T14:07:32.134Z,2.88
2023-04-26T14:09:58.518Z,3.45
2023-04-26T14:12:25.231Z,3.63
2023-04-26T14:14:51.691Z,3.30
2023-04-26T14:17:18.095Z,2.55
2023-04-26T14:19:44.451Z,3.08
2023-04-26T14:22:12.745Z,3.50
2023-04-26T14:24:39.252Z,3.28
2023-04-26T14:27:05.839Z,3.72
2023-04-26T14:29:32.296Z,4.38
2023-04-26T14:31:58.773Z,4.25
2023-04-26T14:34:26.448Z,3.60
2023-04-26T14:36:53.035Z,3.97
2023-04-26T14:39:19.626Z,3.70
2023-04-26T14:41:46.520Z,3.65
2023-04-26T14:44:12.967Z,3.38
2023-04-26T14:46:39.655Z,3.40
2023-04-26T14:49:06.033Z,3.70
2023-04-26T14:51:32.654Z,3.88
2023-04-26T14:53:59.664Z,3.55
2023-04-26T14:56:26.243Z,3.50
2023-04-26T14:58:52.830Z,4.55
2023-04-26T15:01:19.166Z,3.42
2023-04-26T15:03:46.560Z,4.53
2023-04-26T15:06:13.009Z,3.67
2023-04-26T15:08:39.431Z,2.97
2023-04-26T15:11:06.110Z,3.03
2023-04-26T15:13:32.683Z,3.00
2023-04-26T15:16:06.004Z,2.78
2023-04-26T15:18:35.882Z,2.92
2023-04-26T15:21:02.246Z,2.40
2023-04-26T15:23:28.579Z,3.72
2023-04-26T15:25:54.932Z,3.95
2023-04-26T15:28:21.665Z,4.28
2023-04-26T15:30:49.312Z,4.30
2023-04-26T15:33:17.040Z,3.47
2023-04-26T15:35:45.934Z,2.67
2023-04-26T15:38:12.297Z,3.90
2023-04-26T15:40:38.725Z,3.50
2023-04-26T15:43:05.108Z,2.92
2023-04-26T15:45:31.460Z,2.63
2023-04-26T15:47:59.108Z,3.80
2023-04-26T15:50:25.630Z,4.40
2023-04-26T15:52:52.092Z,3.38
2023-04-26T15:55:18.682Z,4.00
2023-04-26T15:57:45.289Z,3.08
2023-04-26T16:00:14.126Z,3.20
2023-04-26T16:02:42.683Z,3.25
2023-04-26T16:05:09.522Z,3.45
2023-04-26T16:07:38.168Z,2.72
2023-04-26T16:10:08.966Z,2.72
2023-04-26T16:12:39.618Z,2.58
2023-04-26T16:15:09.632Z,2.85
2023-04-26T16:17:37.135Z,3.13
2023-04-26T16:20:07.024Z,3.95
2023-04-26T16:22:35.055Z,3.20
2023-04-26T16:25:03.824Z,3.58
2023-04-26T16:27:30.313Z,3.00
2023-04-26T16:29:59.203Z,3.42
2023-04-26T16:32:26.278Z,3.35
2023-04-26T16:34:53.149Z,3.20
2023-04-26T16:37:19.885Z,3.75
2023-04-26T16:39:46.510Z,3.00
2023-04-26T16:42:13.116Z,2.70
2023-04-26T16:44:40.943Z,3.13
2023-04-26T16:47:07.520Z,2.70
2023-04-26T16:49:34.581Z,3.00
2023-04-26T16:52:01.107Z,3.42
2023-04-26T16:54:27.666Z,3.05
2023-04-26T16:56:54.367Z,3.40
2023-04-26T16:59:21.092Z,2.78
2023-04-26T17:01:47.828Z,3.10
2023-04-26T17:04:14.783Z,3.15
2023-04-26T17:06:41.570Z,3.42
2023-04-26T17:09:09.138Z,3.10
2023-04-26T17:11:37.452Z,3.40
2023-04-26T17:14:04.698Z,3.33
2023-04-26T17:16:31.839Z,3.10
2023-04-26T17:18:58.725Z,2.88
2023-04-26T17:21:25.501Z,3.15
2023-04-26T17:23:52.234Z,3.60
2023-04-26T17:26:18.981Z,3.15
2023-04-26T17:28:45.377Z,2.97
2023-04-26T17:31:12.181Z,3.83
2023-04-26T17:33:38.671Z,3.58
2023-04-26T17:36:05.609Z,4.40
2023-04-26T17:38:32.038Z,3.78
2023-04-26T17:40:59.758Z,3.13
2023-04-26T17:43:26.191Z,3.60
2023-04-26T17:45:52.768Z,3.40
2023-04-26T17:48:19.236Z,3.80
2023-04-26T17:50:45.973Z,3.65
2023-04-26T17:53:12.338Z,3.15
2023-04-26T17:55:43.406Z,3.30
2023-04-26T17:58:10.438Z,3.15
2023-04-26T18:00:38.134Z,3.13
2023-04-26T18:03:06.709Z,3.17
2023-04-26T18:05:33.579Z,3.72
2023-04-26T18:08:11.308Z,3.40
2023-04-26T18:10:38.766Z,3.35
2023-04-26T18:13:06.968Z,3.38
2023-04-26T18:15:35.818Z,3.60
2023-04-26T18:18:05.510Z,3.05
2023-04-26T18:20:32.524Z,3.38
2023-04-26T18:22:59.087Z,3.40
2023-04-26T18:25:27.322Z,3.92
2023-04-26T18:27:57.078Z,3.50
2023-04-26T18:30:23.702Z,3.78
2023-04-26T18:32:52.186Z,3.92
2023-04-26T18:37:45.712Z,3.42
2023-04-26T18:40:13.242Z,3.65
2023-04-26T18:42:40.020Z,4.00
2023-04-26T18:45:15.136Z,3.95
2023-04-26T18:47:41.762Z,3.80
2023-04-26T18:50:08.639Z,4.50
2023-04-26T18:52:38.893Z,3.60
2023-04-26T18:55:10.053Z,4.13
2023-04-26T18:57:36.945Z,4.38
2023-04-26T19:00:05.305Z,4.07
2023-04-26T19:02:36.210Z,4.13
2023-04-26T19:05:04.669Z,4.72
2023-04-26T19:07:31.880Z,4.38
2023-04-26T19:10:00.674Z,4.15
2023-04-26T19:12:29.260Z,4.10
2023-04-26T19:14:58.189Z,4.60
2023-04-26T19:17:24.981Z,4.68
2023-04-26T19:19:57.868Z,4.18
2023-04-26T19:22:26.924Z,4.15
2023-04-26T19:24:53.557Z,4.53
2023-04-26T19:27:24.860Z,4.78
2023-04-26T19:29:51.207Z,4.82
2023-04-26T19:32:23.149Z,5.50
2023-04-26T19:34:50.219Z,5.10
2023-04-26T19:37:20.423Z,4.95
2023-04-26T19:39:46.913Z,4.75
2023-04-26T19:42:16.155Z,5.15
2023-04-26T19:44:46.898Z,5.40
2023-04-26T19:47:16.028Z,4.90
2023-04-26T19:49:42.409Z,5.18
2023-04-26T19:52:08.866Z,5.50
2023-04-26T19:54:41.925Z,4.95
2023-04-26T19:57:10.461Z,4.50
2023-04-26T20:02:03.774Z,4.85
2023-04-26T20:04:31.588Z,6.25
2023-04-26T20:07:03.371Z,5.57
2023-04-26T20:09:30.276Z,5.85
2023-04-26T20:12:02.485Z,5.75
2023-04-26T20:14:30.899Z,5.30
2023-04-26T20:17:02.017Z,5.50
2023-04-26T20:19:29.396Z,6.05
2023-04-26T20:21:59.513Z,6.32
2023-04-26T20:24:31.911Z,6.93
2023-04-26T20:27:01.130Z,5.68
2023-04-26T20:29:35.254Z,5.35
2023-04-26T20:32:01.679Z,5.20
2023-04-26T20:34:28.179Z,5.65
2023-04-26T20:36:55.229Z,5.63
2023-04-26T20:39:21.869Z,5.13
2023-04-26T20:41:48.664Z,5.50
2023-04-26T20:44:27.128Z,5.28
2023-04-26T20:49:21.044Z,4.22
2023-04-26T20:51:47.439Z,5.28
2023-04-26T20:54:13.888Z,4.63
2023-04-26T20:56:42.937Z,4.95
2023-04-26T20:59:10.887Z,4.85
2023-04-26T21:01:37.328Z,5.45
2023-04-26T21:04:03.885Z,5.03
2023-04-26T21:06:31.093Z,4.70
2023-04-26T21:08:58.004Z,4.60
2023-04-26T21:11:24.641Z,5.18
2023-04-26T21:13:55.724Z,5.32
2023-04-26T21:16:22.189Z,4.80
2023-04-26T21:18:48.760Z,4.38
2023-04-26T21:21:15.430Z,5.80
2023-04-26T21:23:43.240Z,5.07
2023-04-26T21:26:09.688Z,5.07
2023-04-26T21:28:36.422Z,5.22
2023-04-26T21:31:09.322Z,5.35
2023-04-26T21:33:36.383Z,4.55
2023-04-26T21:36:07.689Z,5.60
2023-04-26T21:38:35.055Z,5.18
2023-04-26T21:41:01.401Z,4.93
2023-04-26T21:43:28.248Z,5.30
2023-04-26T21:46:00.748Z,5.70
2023-04-26T21:48:27.166Z,6.00
2023-04-26T21:50:53.624Z,5.97
2023-04-26T21:53:20.769Z,5.75
2023-04-26T21:55:52.726Z,5.72
2023-04-26T21:58:21.640Z,6.20
2023-04-26T22:00:49.745Z,5.50
2023-04-26T22:03:17.218Z,5.70
2023-04-26T22:05:44.544Z,5.53
2023-04-26T22:08:11.334Z,5.38
2023-04-26T22:10:39.040Z,5.50
2023-04-26T22:13:05.692Z,5.37
2023-04-26T22:15:33.199Z,6.22
2023-04-26T22:18:00.083Z,5.47
2023-04-26T22:20:26.796Z,6.18
2023-04-26T22:22:53.593Z,6.05
2023-04-26T22:25:20.596Z,6.80
2023-04-26T22:27:49.416Z,5.93
2023-04-26T22:30:25.284Z,6.28
2023-04-26T22:32:55.460Z,5.30
2023-04-26T22:35:23.463Z,5.78
2023-04-26T22:37:53.248Z,5.50
2023-04-26T22:40:23.978Z,6.28
2023-04-26T22:42:55.748Z,6.07
2023-04-26T22:45:22.613Z,6.03
2023-04-26T22:47:54.623Z,5.82
2023-04-26T22:50:21.782Z,6.05
2023-04-26T22:52:49.594Z,6.82
2023-04-26T22:55:19.108Z,6.20
2023-04-26T22:57:46.384Z,6.30
2023-04-26T23:00:15.022Z,6.75
2023-04-26T23:02:46.818Z,6.68
2023-04-26T23:05:13.751Z,5.78
2023-04-26T23:07:40.406Z,6.95
2023-04-26T23:10:10.123Z,6.38
2023-04-26T23:15:17.840Z,6.10
2023-04-26T23:17:47.380Z,6.28
2023-04-26T23:20:14.079Z,6.22
2023-04-26T23:22:45.958Z,6.25
2023-04-26T23:25:12.316Z,6.47
2023-04-26T23:27:41.320Z,5.45
2023-04-26T23:30:09.606Z,6.20
2023-04-26T23:32:36.438Z,5.88
2023-04-26T23:35:04.037Z,6.40
2023-04-26T23:37:36.043Z,5.95
2023-04-26T23:40:06.482Z,6.00
2023-04-26T23:42:32.876Z,5.55
2023-04-26T23:45:00.339Z,5.55
2023-04-26T23:47:30.858Z,5.57
2023-04-26T23:50:00.031Z,5.53
2023-04-26T23:52:26.645Z,5.75
2023-04-26T23:54:53.498Z,5.90
2023-04-26T23:57:19.874Z,5.90
2023-04-26T23:59:46.320Z,6.05
